Wetterdaten: Woche 24.04.17 - 30.04.17 (KW17)
Datum Zeit Temp. Aussen Temp. o. S. +5cm Feuchte Auss BlattFeu 1 Luftdruck Regen Sonnenschein Regendauer Solar Windben Empfang
24.04.2017 00:00 5,5 C 4,0 C 1,9 C 82 % 1 lf 1022,4 hPa 0,0 l/m 0,00 h 0,00 h 4 W/m 1,5 km/h (1 Bft) 95,49 %
24.04.2017 01:00 4,1 C 3,0 C 1,2 C 84 % 2 lf 1021,7 hPa 0,0 l/m 0,00 h 0,00 h 0 W/m 0,0 km/h (0 Bft) 97,79 %
24.04.2017 02:00 3,1 C 2,4 C 0,7 C 88 % 4 lf 1020,9 hPa 0,0 l/m 0,00 h 0,00 h 0 W/m 3,2 km/h (1 Bft) 94,64 %
24.04.2017 03:00 2,6 C 2,3 C 0,4 C 90 % 11 lf 1020,2 hPa 0,0 l/m 0,00 h 0,00 h 5 W/m 5,4 km/h (1 Bft) 96,99 %
24.04.2017 04:00 2,2 C 2,2 C 0,0 C 92 % 15 lf 1019,6 hPa 0,0 l/m 0,00 h 0,00 h 5 W/m 5,0 km/h (1 Bft) 97,96 %
24.04.2017 05:00 1,8 C 1,7 C -0,5 C 93 % 15 lf 1018,7 hPa 0,0 l/m 0,00 h 0,00 h 0 W/m 5,3 km/h (1 Bft) 96,56 %
24.04.2017 06:00 1,6 C 2,0 C -0,6 C 93 % 15 lf 1018,0 hPa 0,0 l/m 0,27 h 0,00 h 18 W/m 4,5 km/h (1 Bft) 94,78 %
24.04.2017 07:00 1,9 C 3,5 C 1,1 C 94 % 12 lf 1017,7 hPa 0,0 l/m 1,00 h 0,00 h 119 W/m 7,1 km/h (2 Bft) 96,19 %
24.04.2017 08:00 4,4 C 7,6 C 5,2 C 89 % 0 lf 1017,6 hPa 0,0 l/m 0,70 h 0,00 h 208 W/m 12,8 km/h (3 Bft) 97,71 %
24.04.2017 09:00 7,5 C 9,9 C 8,8 C 74 % 0 lf 1017,1 hPa 0,0 l/m 0,30 h 0,00 h 285 W/m 18,0 km/h (3 Bft) 96,53 %
24.04.2017 10:00 10,0 C 13,3 C 12,0 C 64 % 0 lf 1016,3 hPa 0,0 l/m 1,00 h 0,00 h 502 W/m 20,8 km/h (4 Bft) 94,45 %
24.04.2017 11:00 12,3 C 17,4 C 16,1 C 59 % 0 lf 1015,7 hPa 0,0 l/m 1,00 h 0,00 h 536 W/m 22,4 km/h (4 Bft) 97,86 %
24.04.2017 12:00 13,6 C 19,6 C 15,8 C 58 % 0 lf 1014,9 hPa 0,0 l/m 0,87 h 0,00 h 590 W/m 24,0 km/h (4 Bft) 97,16 %
24.04.2017 13:00 15,6 C 21,5 C 17,4 C 54 % 0 lf 1013,8 hPa 0,0 l/m 0,83 h 0,00 h 702 W/m 24,7 km/h (4 Bft) 95,94 %
24.04.2017 14:00 15,6 C 19,0 C 18,0 C 53 % 0 lf 1012,9 hPa 0,0 l/m 0,63 h 0,00 h 441 W/m 25,2 km/h (4 Bft) 95,24 %
24.04.2017 15:00 15,8 C 19,0 C 18,4 C 53 % 0 lf 1012,0 hPa 0,0 l/m 1,00 h 0,00 h 444 W/m 26,2 km/h (4 Bft) 98,51 %
24.04.2017 16:00 15,6 C 18,1 C 17,0 C 53 % 0 lf 1011,0 hPa 0,0 l/m 0,97 h 0,00 h 336 W/m 23,1 km/h (4 Bft) 96,02 %
24.04.2017 17:00 15,7 C 17,6 C 16,1 C 53 % 0 lf 1010,2 hPa 0,0 l/m 0,53 h 0,00 h 262 W/m 19,9 km/h (4 Bft) 95,44 %
24.04.2017 18:00 15,1 C 15,9 C 14,5 C 54 % 0 lf 1009,5 hPa 0,0 l/m 0,33 h 0,00 h 160 W/m 19,7 km/h (3 Bft) 98,14 %
24.04.2017 19:00 14,3 C 14,4 C 13,0 C 56 % 0 lf 1008,9 hPa 0,0 l/m 0,00 h 0,00 h 61 W/m 17,6 km/h (3 Bft) 95,02 %
24.04.2017 20:00 13,5 C 13,3 C 11,6 C 59 % 0 lf 1008,4 hPa 0,0 l/m 0,00 h 0,00 h 12 W/m 12,1 km/h (2 Bft) 95,58 %
24.04.2017 21:00 12,7 C 12,4 C 10,8 C 66 % 0 lf 1008,1 hPa 0,0 l/m 0,00 h 0,00 h 0 W/m 16,6 km/h (3 Bft) 98,36 %
24.04.2017 22:00 11,9 C 11,8 C 10,1 C 71 % 0 lf 1007,5 hPa 0,0 l/m 0,00 h 0,00 h 0 W/m 12,8 km/h (3 Bft) 95,52 %
24.04.2017 23:00 11,3 C 10,9 C 9,5 C 74 % 2 lf 1006,6 hPa 0,0 l/m 0,00 h 0,10 h 0 W/m 16,3 km/h (3 Bft) 94,66 %
25.04.2017 00:00 10,8 C 10,6 C 9,3 C 77 % 0 lf 1005,9 hPa 0,0 l/m 0,00 h 0,00 h 0 W/m 12,1 km/h (2 Bft) 98,05 %
25.04.2017 01:00 10,7 C 10,6 C 9,4 C 78 % 0 lf 1005,4 hPa 0,0 l/m 0,00 h 0,00 h 0 W/m 16,5 km/h (3 Bft) 96,02 %
25.04.2017 02:00 9,2 C 8,5 C 7,1 C 81 % 4 lf 1005,3 hPa 0,2 l/m 0,00 h 0,37 h 0 W/m 24,1 km/h (4 Bft) 96,15 %
25.04.2017 03:00 6,9 C 5,7 C 5,0 C 88 % 15 lf 1005,5 hPa 1,0 l/m 0,00 h 1,00 h 0 W/m 12,8 km/h (3 Bft) 96,79 %
25.04.2017 04:00 6,1 C 5,6 C 4,5 C 92 % 15 lf 1005,3 hPa 0,4 l/m 0,00 h 0,93 h 0 W/m 10,1 km/h (2 Bft) 94,38 %
25.04.2017 05:00 5,8 C 5,6 C 4,4 C 94 % 15 lf 1005,2 hPa 0,0 l/m 0,00 h 0,23 h 0 W/m 13,4 km/h (3 Bft) 98,93 %
25.04.2017 06:00 5,8 C 5,7 C 4,4 C 95 % 15 lf 1005,6 hPa 0,0 l/m 0,00 h 0,00 h 12 W/m 18,5 km/h (3 Bft) 97,23 %
25.04.2017 07:00 5,9 C 6,1 C 4,5 C 95 % 15 lf 1006,0 hPa 0,0 l/m 0,00 h 0,00 h 58 W/m 14,4 km/h (3 Bft) 94,02 %
25.04.2017 08:00 6,1 C 7,5 C 4,8 C 92 % 8 lf 1006,5 hPa 0,0 l/m 0,83 h 0,00 h 260 W/m 18,1 km/h (3 Bft) 97,79 %
25.04.2017 09:00 7,3 C 13,3 C 6,6 C 77 % 0 lf 1006,8 hPa 0,2 l/m 1,00 h 0,00 h 444 W/m 26,4 km/h (4 Bft) 96,86 %
25.04.2017 10:00 8,6 C 15,3 C 12,5 C 67 % 0 lf 1007,3 hPa 0,0 l/m 0,77 h 0,00 h 562 W/m 27,0 km/h (4 Bft) 97,30 %
25.04.2017 11:00 9,1 C 12,4 C 10,8 C 64 % 0 lf 1007,4 hPa 0,0 l/m 0,47 h 0,00 h 382 W/m 26,9 km/h (4 Bft) 95,80 %
25.04.2017 12:00 9,3 C 14,7 C 11,7 C 66 % 0 lf 1007,7 hPa 0,0 l/m 0,73 h 0,07 h 607 W/m 29,9 km/h (5 Bft) 95,52 %
25.04.2017 13:00 10,1 C 16,0 C 11,7 C 67 % 0 lf 1008,1 hPa 0,0 l/m 0,83 h 0,00 h 808 W/m 29,0 km/h (5 Bft) 98,01 %
25.04.2017 14:00 10,4 C 13,1 C 11,1 C 64 % 5 lf 1008,4 hPa 0,2 l/m 0,43 h 0,20 h 377 W/m 23,6 km/h (4 Bft) 95,16 %
25.04.2017 15:00 9,1 C 11,5 C 9,2 C 71 % 11 lf 1008,6 hPa 0,0 l/m 0,23 h 0,23 h 239 W/m 12,8 km/h (3 Bft) 96,80 %
25.04.2017 16:00 9,2 C 11,0 C 9,8 C 66 % 1 lf 1008,6 hPa 0,0 l/m 0,17 h 0,13 h 216 W/m 14,4 km/h (3 Bft) 96,72 %
25.04.2017 17:00 9,0 C 10,6 C 9,2 C 64 % 0 lf 1008,7 hPa 0,0 l/m 0,00 h 0,03 h 154 W/m 13,5 km/h (3 Bft) 97,08 %
25.04.2017 18:00 9,3 C 10,4 C 9,1 C 57 % 0 lf 1008,9 hPa 0,0 l/m 0,03 h 0,00 h 124 W/m 17,5 km/h (3 Bft) 96,46 %
25.04.2017 19:00 9,1 C 9,6 C 7,7 C 52 % 0 lf 1008,9 hPa 0,0 l/m 0,70 h 0,00 h 112 W/m 22,9 km/h (4 Bft) 96,52 %
25.04.2017 20:00 7,9 C 7,4 C 5,8 C 57 % 0 lf 1009,3 hPa 0,0 l/m 0,57 h 0,00 h 32 W/m 16,4 km/h (3 Bft) 97,58 %
25.04.2017 21:00 6,6 C 5,7 C 4,1 C 65 % 0 lf 1009,8 hPa 0,0 l/m 0,00 h 0,00 h 4 W/m 11,5 km/h (2 Bft) 95,37 %
25.04.2017 22:00 5,4 C 4,4 C 2,9 C 75 % 0 lf 1009,9 hPa 0,0 l/m 0,00 h 0,00 h 4 W/m 8,7 km/h (2 Bft) 95,79 %
25.04.2017 23:00 4,3 C 3,1 C 1,5 C 78 % 0 lf 1010,0 hPa 0,0 l/m 0,00 h 0,00 h 4 W/m 1,9 km/h (1 Bft) 96,86 %
26.04.2017 00:00 3,3 C 2,7 C 1,0 C 82 % 0 lf 1010,0 hPa 0,0 l/m 0,00 h 0,00 h 0 W/m 3,5 km/h (1 Bft) 94,45 %
26.04.2017 01:00 2,6 C 1,7 C 0,2 C 85 % 0 lf 1010,0 hPa 0,0 l/m 0,00 h 0,00 h 2 W/m 2,8 km/h (1 Bft) 96,08 %
26.04.2017 02:00 2,0 C 1,2 C -0,4 C 86 % 1 lf 1010,0 hPa 0,0 l/m 0,00 h 0,00 h 4 W/m 4,1 km/h (1 Bft) 94,51 %
26.04.2017 03:00 1,5 C 1,2 C -0,4 C 88 % 1 lf 1010,0 hPa 0,0 l/m 0,00 h 0,00 h 5 W/m 6,4 km/h (2 Bft) 97,36 %
26.04.2017 04:00 1,3 C 1,0 C -0,4 C 90 % 0 lf 1010,1 hPa 0,0 l/m 0,00 h 0,00 h 5 W/m 7,1 km/h (2 Bft) 96,78 %
26.04.2017 05:00 1,3 C 1,7 C 0,3 C 90 % 0 lf 1009,8 hPa 0,0 l/m 0,00 h 0,00 h 5 W/m 9,7 km/h (2 Bft) 97,13 %
26.04.2017 06:00 1,4 C 1,4 C 0,0 C 89 % 0 lf 1009,8 hPa 0,0 l/m 0,00 h 0,00 h 13 W/m 10,3 km/h (2 Bft) 97,29 %
26.04.2017 07:00 1,6 C 2,4 C 0,8 C 89 % 0 lf 1010,2 hPa 0,0 l/m 0,83 h 0,00 h 116 W/m 11,6 km/h (2 Bft) 95,73 %
26.04.2017 08:00 3,2 C 5,2 C 4,0 C 89 % 0 lf 1010,6 hPa 0,0 l/m 0,47 h 0,00 h 197 W/m 12,2 km/h (2 Bft) 96,51 %
26.04.2017 09:00 5,0 C 9,5 C 6,6 C 87 % 0 lf 1010,9 hPa 0,0 l/m 0,43 h 0,00 h 260 W/m 9,4 km/h (2 Bft) 96,01 %
26.04.2017 10:00 6,7 C 11,5 C 9,4 C 82 % 0 lf 1011,1 hPa 0,0 l/m 0,67 h 0,00 h 431 W/m 12,6 km/h (3 Bft) 98,29 %
26.04.2017 11:00 8,2 C 16,2 C 12,3 C 74 % 0 lf 1011,3 hPa 0,0 l/m 0,57 h 0,00 h 583 W/m 13,3 km/h (3 Bft) 95,03 %
26.04.2017 12:00 9,8 C 14,5 C 12,3 C 65 % 0 lf 1011,3 hPa 0,0 l/m 0,30 h 0,10 h 424 W/m 10,2 km/h (2 Bft) 96,60 %
26.04.2017 13:00 10,1 C 15,9 C 10,3 C 63 % 7 lf 1011,4 hPa 0,0 l/m 0,47 h 0,33 h 529 W/m 14,7 km/h (3 Bft) 96,58 %
26.04.2017 14:00 9,9 C 16,1 C 13,5 C 59 % 0 lf 1011,4 hPa 0,0 l/m 0,60 h 0,00 h 595 W/m 15,4 km/h (3 Bft) 96,15 %
26.04.2017 15:00 11,2 C 16,2 C 14,4 C 52 % 0 lf 1011,3 hPa 0,0 l/m 0,37 h 0,00 h 406 W/m 13,3 km/h (3 Bft) 96,37 %
26.04.2017 16:00 10,5 C 14,2 C 11,4 C 56 % 0 lf 1011,5 hPa 0,0 l/m 0,40 h 0,00 h 353 W/m 15,4 km/h (3 Bft) 94,59 %
26.04.2017 17:00 10,3 C 12,0 C 10,0 C 56 % 0 lf 1011,6 hPa 0,0 l/m 0,17 h 0,00 h 190 W/m 13,5 km/h (3 Bft) 98,64 %
26.04.2017 18:00 9,7 C 10,8 C 8,9 C 59 % 0 lf 1011,6 hPa 0,0 l/m 0,40 h 0,00 h 172 W/m 9,4 km/h (2 Bft) 95,73 %
26.04.2017 19:00 9,6 C 9,8 C 8,1 C 57 % 0 lf 1011,9 hPa 0,0 l/m 0,23 h 0,00 h 65 W/m 14,6 km/h (3 Bft) 96,51 %
26.04.2017 20:00 8,3 C 7,9 C 6,3 C 64 % 0 lf 1012,6 hPa 0,0 l/m 0,13 h 0,00 h 21 W/m 15,1 km/h (3 Bft) 96,51 %
26.04.2017 21:00 6,9 C 5,4 C 3,9 C 71 % 0 lf 1013,3 hPa 0,0 l/m 0,00 h 0,00 h 4 W/m 7,5 km/h (2 Bft) 95,51 %
26.04.2017 22:00 5,2 C 3,1 C 1,5 C 76 % 0 lf 1013,8 hPa 0,0 l/m 0,00 h 0,00 h 4 W/m 2,6 km/h (1 Bft) 96,94 %
26.04.2017 23:00 4,0 C 2,7 C 1,6 C 80 % 0 lf 1014,1 hPa 0,0 l/m 0,00 h 0,00 h 0 W/m 0,3 km/h (0 Bft) 97,58 %
27.04.2017 00:00 3,6 C 3,2 C 2,3 C 82 % 0 lf 1014,4 hPa 0,0 l/m 0,00 h 0,00 h 0 W/m 0,7 km/h (0 Bft) 93,78 %
27.04.2017 01:00 3,5 C 2,3 C 1,1 C 84 % 0 lf 1014,4 hPa 0,0 l/m 0,00 h 0,00 h 0 W/m 0,2 km/h (0 Bft) 95,87 %
27.04.2017 02:00 2,7 C 0,9 C -0,4 C 84 % 1 lf 1014,3 hPa 0,0 l/m 0,00 h 0,00 h 5 W/m 2,1 km/h (1 Bft) 96,93 %
27.04.2017 03:00 1,9 C 0,5 C -0,8 C 85 % 2 lf 1014,4 hPa 0,0 l/m 0,00 h 0,00 h 4 W/m 3,2 km/h (1 Bft) 98,51 %
27.04.2017 04:00 1,2 C 0,1 C -1,2 C 87 % 3 lf 1014,5 hPa 0,0 l/m 0,00 h 0,00 h 4 W/m 1,3 km/h (1 Bft) 95,31 %
27.04.2017 05:00 0,8 C -0,6 C -1,7 C 88 % 7 lf 1014,8 hPa 0,0 l/m 0,00 h 0,00 h 4 W/m 0,1 km/h (0 Bft) 96,80 %
27.04.2017 06:00 0,5 C -0,7 C -1,8 C 89 % 14 lf 1015,1 hPa 0,0 l/m 0,50 h 0,00 h 22 W/m 0,0 km/h (0 Bft) 96,68 %
27.04.2017 07:00 0,5 C 1,0 C -0,6 C 91 % 15 lf 1015,5 hPa 0,0 l/m 1,00 h 0,00 h 145 W/m 2,0 km/h (1 Bft) 95,06 %
27.04.2017 08:00 2,1 C 6,8 C 1,6 C 94 % 5 lf 1015,7 hPa 0,0 l/m 1,00 h 0,00 h 330 W/m 5,1 km/h (1 Bft) 98,22 %
27.04.2017 09:00 6,0 C 19,1 C 7,0 C 90 % 0 lf 1015,8 hPa 0,0 l/m 1,00 h 0,00 h 511 W/m 8,1 km/h (2 Bft) 96,48 %
27.04.2017 10:00 9,2 C 18,4 C 14,1 C 68 % 0 lf 1015,9 hPa 0,0 l/m 0,80 h 0,00 h 625 W/m 11,1 km/h (2 Bft) 96,95 %
27.04.2017 11:00 10,4 C 17,7 C 14,0 C 59 % 0 lf 1016,0 hPa 0,0 l/m 0,60 h 0,00 h 559 W/m 14,6 km/h (3 Bft) 96,12 %
27.04.2017 12:00 10,6 C 16,2 C 13,3 C 56 % 0 lf 1015,7 hPa 0,0 l/m 0,37 h 0,00 h 511 W/m 13,1 km/h (3 Bft) 96,87 %
27.04.2017 13:00 11,1 C 16,7 C 12,7 C 54 % 0 lf 1015,3 hPa 0,0 l/m 0,47 h 0,00 h 529 W/m 13,8 km/h (3 Bft) 95,76 %
27.04.2017 14:00 11,2 C 15,5 C 14,0 C 54 % 0 lf 1015,2 hPa 0,0 l/m 0,30 h 0,00 h 385 W/m 11,9 km/h (2 Bft) 97,30 %
27.04.2017 15:00 12,7 C 18,8 C 17,7 C 51 % 0 lf 1014,8 hPa 0,0 l/m 0,63 h 0,00 h 560 W/m 14,2 km/h (3 Bft) 97,08 %
27.04.2017 16:00 12,4 C 17,2 C 14,1 C 49 % 0 lf 1014,6 hPa 0,0 l/m 0,53 h 0,00 h 430 W/m 18,0 km/h (3 Bft) 94,87 %
27.04.2017 17:00 10,6 C 12,5 C 11,3 C 63 % 0 lf 1014,8 hPa 0,0 l/m 0,70 h 0,10 h 310 W/m 21,0 km/h (4 Bft) 98,51 %
27.04.2017 18:00 10,1 C 10,5 C 9,7 C 65 % 0 lf 1014,7 hPa 0,0 l/m 0,37 h 0,00 h 161 W/m 16,3 km/h (3 Bft) 95,49 %
27.04.2017 19:00 9,2 C 9,7 C 8,6 C 67 % 0 lf 1014,6 hPa 0,0 l/m 0,10 h 0,00 h 76 W/m 11,6 km/h (2 Bft) 95,51 %
27.04.2017 20:00 8,7 C 8,5 C 7,2 C 68 % 0 lf 1014,7 hPa 0,0 l/m 0,00 h 0,00 h 16 W/m 12,5 km/h (3 Bft) 98,08 %
27.04.2017 21:00 8,1 C 7,6 C 6,3 C 73 % 0 lf 1014,9 hPa 0,0 l/m 0,00 h 0,00 h 1 W/m 9,4 km/h (2 Bft) 95,43 %
27.04.2017 22:00 7,2 C 6,5 C 4,7 C 76 % 0 lf 1014,9 hPa 0,0 l/m 0,00 h 0,00 h 0 W/m 6,7 km/h (2 Bft) 97,01 %
27.04.2017 23:00 6,1 C 4,7 C 2,9 C 78 % 0 lf 1014,8 hPa 0,0 l/m 0,00 h 0,00 h 2 W/m 5,4 km/h (1 Bft) 96,72 %
28.04.2017 00:00 4,8 C 3,5 C 1,9 C 81 % 0 lf 1014,5 hPa 0,0 l/m 0,00 h 0,00 h 2 W/m 5,3 km/h (1 Bft) 93,96 %
28.04.2017 01:00 3,8 C 2,9 C 1,2 C 84 % 0 lf 1014,5 hPa 0,0 l/m 0,00 h 0,00 h 4 W/m 6,2 km/h (2 Bft) 98,50 %
28.04.2017 02:00 3,0 C 1,7 C 0,3 C 84 % 0 lf 1014,2 hPa 0,0 l/m 0,00 h 0,00 h 2 W/m 4,8 km/h (1 Bft) 96,25 %
28.04.2017 03:00 2,2 C 0,9 C -0,4 C 86 % 1 lf 1013,9 hPa 0,0 l/m 0,00 h 0,00 h 0 W/m 2,0 km/h (1 Bft) 97,28 %
28.04.2017 04:00 1,5 C 1,1 C -0,5 C 87 % 1 lf 1013,4 hPa 0,0 l/m 0,00 h 0,00 h 0 W/m 5,1 km/h (1 Bft) 94,05 %
28.04.2017 05:00 1,8 C 2,2 C 0,4 C 90 % 0 lf 1013,2 hPa 0,0 l/m 0,00 h 0,00 h 5 W/m 7,8 km/h (2 Bft) 95,58 %
28.04.2017 06:00 2,0 C 2,4 C 0,6 C 91 % 0 lf 1013,0 hPa 0,0 l/m 0,00 h 0,00 h 19 W/m 7,5 km/h (2 Bft) 98,00 %
28.04.2017 07:00 2,3 C 3,5 C 1,6 C 90 % 0 lf 1013,0 hPa 0,0 l/m 0,03 h 0,00 h 67 W/m 6,8 km/h (2 Bft) 94,95 %
28.04.2017 08:00 3,3 C 5,1 C 4,1 C 89 % 0 lf 1013,2 hPa 0,0 l/m 0,00 h 0,00 h 115 W/m 9,9 km/h (2 Bft) 96,34 %
28.04.2017 09:00 5,3 C 7,2 C 6,6 C 84 % 0 lf 1013,3 hPa 0,0 l/m 0,00 h 0,00 h 141 W/m 12,2 km/h (2 Bft) 94,59 %
28.04.2017 10:00 7,0 C 8,9 C 8,8 C 80 % 0 lf 1013,3 hPa 0,0 l/m 0,13 h 0,00 h 211 W/m 13,0 km/h (3 Bft) 95,59 %
28.04.2017 11:00 7,7 C 9,3 C 8,7 C 78 % 0 lf 1013,3 hPa 0,0 l/m 0,00 h 0,00 h 171 W/m 11,8 km/h (2 Bft) 97,79 %
28.04.2017 12:00 8,6 C 10,8 C 10,7 C 77 % 0 lf 1013,3 hPa 0,0 l/m 0,00 h 0,00 h 271 W/m 15,4 km/h (3 Bft) 96,09 %
28.04.2017 13:00 9,7 C 13,1 C 12,7 C 75 % 0 lf 1013,0 hPa 0,0 l/m 0,53 h 0,00 h 421 W/m 16,2 km/h (3 Bft) 94,46 %
28.04.2017 14:00 11,5 C 16,1 C 15,6 C 71 % 0 lf 1012,9 hPa 0,0 l/m 1,00 h 0,00 h 746 W/m 14,9 km/h (3 Bft) 98,79 %
28.04.2017 15:00 13,0 C 16,4 C 15,9 C 65 % 0 lf 1012,7 hPa 0,0 l/m 0,63 h 0,00 h 347 W/m 15,1 km/h (3 Bft) 95,30 %
28.04.2017 16:00 11,4 C 12,1 C 11,2 C 70 % 0 lf 1013,0 hPa 0,0 l/m 0,00 h 0,00 h 135 W/m 14,8 km/h (3 Bft) 95,94 %
28.04.2017 17:00 10,8 C 12,2 C 11,3 C 71 % 0 lf 1013,3 hPa 0,0 l/m 0,20 h 0,00 h 163 W/m 14,7 km/h (3 Bft) 98,15 %
28.04.2017 18:00 11,5 C 13,1 C 11,8 C 67 % 0 lf 1013,4 hPa 0,0 l/m 0,57 h 0,00 h 173 W/m 13,9 km/h (3 Bft) 95,30 %
28.04.2017 19:00 11,1 C 9,8 C 8,3 C 70 % 10 lf 1013,7 hPa 0,2 l/m 0,00 h 0,33 h 31 W/m 7,2 km/h (2 Bft) 95,82 %
28.04.2017 20:00 10,0 C 8,5 C 6,3 C 77 % 7 lf 1014,1 hPa 0,0 l/m 0,30 h 0,00 h 24 W/m 8,6 km/h (2 Bft) 97,79 %
28.04.2017 21:00 8,6 C 6,8 C 4,1 C 76 % 0 lf 1014,6 hPa 0,0 l/m 0,00 h 0,00 h 5 W/m 6,7 km/h (2 Bft) 95,43 %
28.04.2017 22:00 6,8 C 4,6 C 2,7 C 79 % 0 lf 1015,2 hPa 0,0 l/m 0,00 h 0,00 h 5 W/m 6,2 km/h (2 Bft) 97,58 %
28.04.2017 23:00 5,4 C 4,3 C 2,1 C 82 % 0 lf 1015,5 hPa 0,0 l/m 0,00 h 0,00 h 5 W/m 6,2 km/h (2 Bft) 96,16 %
29.04.2017 00:00 4,4 C 3,2 C 1,5 C 84 % 0 lf 1015,9 hPa 0,0 l/m 0,00 h 0,00 h 5 W/m 5,1 km/h (1 Bft) 94,26 %
29.04.2017 01:00 3,7 C 3,1 C 1,4 C 87 % 0 lf 1016,3 hPa 0,0 l/m 0,00 h 0,00 h 5 W/m 4,9 km/h (1 Bft) 96,13 %
29.04.2017 02:00 3,3 C 3,0 C 1,0 C 89 % 1 lf 1016,4 hPa 0,0 l/m 0,00 h 0,00 h 4 W/m 5,9 km/h (2 Bft) 97,07 %
29.04.2017 03:00 3,0 C 3,0 C 1,3 C 90 % 1 lf 1016,5 hPa 0,0 l/m 0,00 h 0,00 h 4 W/m 7,8 km/h (2 Bft) 97,87 %
29.04.2017 04:00 2,6 C 2,0 C 0,4 C 91 % 1 lf 1016,7 hPa 0,0 l/m 0,00 h 0,00 h 5 W/m 6,2 km/h (2 Bft) 94,99 %
29.04.2017 05:00 2,3 C 2,1 C 0,8 C 91 % 1 lf 1017,0 hPa 0,0 l/m 0,00 h 0,00 h 7 W/m 6,3 km/h (2 Bft) 96,30 %
29.04.2017 06:00 2,0 C 1,3 C -0,1 C 92 % 1 lf 1017,1 hPa 0,0 l/m 0,07 h 0,00 h 21 W/m 3,6 km/h (1 Bft) 97,16 %
29.04.2017 07:00 1,8 C 2,5 C 0,8 C 92 % 1 lf 1017,2 hPa 0,0 l/m 1,00 h 0,00 h 157 W/m 6,1 km/h (2 Bft) 95,29 %
29.04.2017 08:00 3,6 C 8,6 C 3,4 C 94 % 0 lf 1017,4 hPa 0,0 l/m 1,00 h 0,00 h 344 W/m 8,5 km/h (2 Bft) 97,16 %
29.04.2017 09:00 7,8 C 18,4 C 8,5 C 85 % 0 lf 1017,6 hPa 0,0 l/m 1,00 h 0,00 h 519 W/m 9,2 km/h (2 Bft) 96,02 %
29.04.2017 10:00 10,3 C 17,3 C 13,8 C 67 % 0 lf 1017,7 hPa 0,0 l/m 0,90 h 0,00 h 599 W/m 8,3 km/h (2 Bft) 94,69 %
29.04.2017 11:00 11,0 C 18,7 C 14,9 C 59 % 0 lf 1017,8 hPa 0,0 l/m 0,77 h 0,00 h 582 W/m 9,0 km/h (2 Bft) 98,12 %
29.04.2017 12:00 11,9 C 19,2 C 14,6 C 57 % 0 lf 1017,8 hPa 0,0 l/m 0,50 h 0,00 h 572 W/m 10,0 km/h (2 Bft) 97,26 %
29.04.2017 13:00 11,9 C 18,1 C 13,9 C 55 % 0 lf 1017,5 hPa 0,0 l/m 0,50 h 0,00 h 570 W/m 8,7 km/h (2 Bft) 94,18 %
29.04.2017 14:00 12,7 C 20,1 C 17,7 C 52 % 0 lf 1017,3 hPa 0,0 l/m 0,67 h 0,00 h 700 W/m 10,6 km/h (2 Bft) 98,43 %
29.04.2017 15:00 13,6 C 19,8 C 18,2 C 50 % 0 lf 1017,0 hPa 0,0 l/m 0,63 h 0,00 h 568 W/m 10,2 km/h (2 Bft) 94,91 %
29.04.2017 16:00 13,9 C 19,5 C 15,7 C 49 % 0 lf 1016,7 hPa 0,0 l/m 0,80 h 0,00 h 589 W/m 13,3 km/h (3 Bft) 96,43 %
29.04.2017 17:00 14,1 C 19,0 C 13,5 C 49 % 0 lf 1016,2 hPa 0,0 l/m 1,00 h 0,00 h 551 W/m 12,6 km/h (3 Bft) 96,99 %
29.04.2017 18:00 13,5 C 14,0 C 11,9 C 49 % 0 lf 1016,0 hPa 0,0 l/m 0,80 h 0,00 h 283 W/m 10,5 km/h (2 Bft) 95,75 %
29.04.2017 19:00 12,8 C 12,9 C 10,7 C 51 % 0 lf 1015,8 hPa 0,0 l/m 0,83 h 0,00 h 122 W/m 12,7 km/h (3 Bft) 97,58 %
29.04.2017 20:00 11,9 C 11,1 C 8,6 C 53 % 0 lf 1015,7 hPa 0,0 l/m 0,10 h 0,00 h 25 W/m 9,9 km/h (2 Bft) 95,53 %
29.04.2017 21:00 10,4 C 8,8 C 5,4 C 58 % 0 lf 1015,7 hPa 0,0 l/m 0,00 h 0,00 h 5 W/m 6,2 km/h (2 Bft) 96,58 %
29.04.2017 22:00 8,9 C 8,5 C 5,7 C 62 % 0 lf 1015,5 hPa 0,0 l/m 0,00 h 0,00 h 3 W/m 11,6 km/h (2 Bft) 95,52 %
29.04.2017 23:00 8,2 C 7,9 C 5,5 C 63 % 0 lf 1015,5 hPa 0,0 l/m 0,00 h 0,00 h 0 W/m 12,8 km/h (3 Bft) 98,01 %
30.04.2017 00:00 7,4 C 6,8 C 4,1 C 66 % 0 lf 1015,4 hPa 0,0 l/m 0,00 h 0,00 h 0 W/m 8,8 km/h (2 Bft) 96,44 %
30.04.2017 01:00 6,4 C 5,6 C 2,7 C 69 % 0 lf 1015,0 hPa 0,0 l/m 0,00 h 0,00 h 0 W/m 7,1 km/h (2 Bft) 95,66 %
30.04.2017 02:00 5,4 C 4,4 C 1,8 C 72 % 0 lf 1014,7 hPa 0,0 l/m 0,00 h 0,00 h 4 W/m 7,1 km/h (2 Bft) 95,37 %
30.04.2017 03:00 4,9 C 4,9 C 1,9 C 73 % 0 lf 1014,5 hPa 0,0 l/m 0,00 h 0,00 h 3 W/m 8,0 km/h (2 Bft) 95,52 %
30.04.2017 04:00 4,4 C 3,9 C 0,8 C 74 % 0 lf 1014,2 hPa 0,0 l/m 0,00 h 0,00 h 5 W/m 6,4 km/h (2 Bft) 98,15 %
30.04.2017 05:00 3,7 C 3,4 C 0,7 C 76 % 0 lf 1013,8 hPa 0,0 l/m 0,00 h 0,00 h 5 W/m 7,1 km/h (2 Bft) 95,73 %
30.04.2017 06:00 3,9 C 4,6 C 2,5 C 76 % 0 lf 1013,4 hPa 0,0 l/m 0,63 h 0,00 h 33 W/m 13,3 km/h (3 Bft) 94,81 %
30.04.2017 07:00 4,8 C 5,8 C 3,7 C 74 % 0 lf 1013,3 hPa 0,0 l/m 1,00 h 0,00 h 166 W/m 14,6 km/h (3 Bft) 98,44 %
30.04.2017 08:00 7,0 C 10,1 C 6,3 C 69 % 0 lf 1012,9 hPa 0,0 l/m 1,00 h 0,00 h 353 W/m 23,3 km/h (4 Bft) 96,29 %
30.04.2017 09:00 10,7 C 16,1 C 11,3 C 61 % 0 lf 1012,3 hPa 0,0 l/m 1,00 h 0,00 h 504 W/m 28,7 km/h (4 Bft) 95,66 %
30.04.2017 10:00 13,0 C 18,2 C 17,7 C 57 % 0 lf 1011,6 hPa 0,0 l/m 1,00 h 0,00 h 585 W/m 24,8 km/h (4 Bft) 97,09 %
30.04.2017 11:00 15,6 C 20,3 C 19,9 C 50 % 0 lf 1010,6 hPa 0,0 l/m 1,00 h 0,00 h 759 W/m 35,4 km/h (5 Bft) 96,59 %
30.04.2017 12:00 16,8 C 21,0 C 19,5 C 46 % 0 lf 1009,8 hPa 0,0 l/m 1,00 h 0,00 h 696 W/m 44,4 km/h (6 Bft) 95,20 %
30.04.2017 13:00 17,9 C 22,1 C 18,7 C 43 % 0 lf 1008,9 hPa 0,0 l/m 0,90 h 0,00 h 828 W/m 39,8 km/h (6 Bft) 97,65 %
30.04.2017 14:00 18,3 C 22,1 C 22,5 C 44 % 0 lf 1008,2 hPa 0,0 l/m 0,97 h 0,00 h 758 W/m 37,1 km/h (5 Bft) 95,87 %
30.04.2017 15:00 19,0 C 23,0 C 24,7 C 41 % 0 lf 1007,1 hPa 0,0 l/m 1,00 h 0,00 h 724 W/m 37,4 km/h (5 Bft) 96,02 %
30.04.2017 16:00 19,4 C 22,9 C 21,6 C 41 % 0 lf 1006,4 hPa 0,0 l/m 1,00 h 0,00 h 654 W/m 36,7 km/h (5 Bft) 96,30 %
30.04.2017 17:00 19,3 C 21,3 C 18,3 C 41 % 0 lf 1005,6 hPa 0,0 l/m 1,00 h 0,00 h 481 W/m 34,0 km/h (5 Bft) 97,24 %
30.04.2017 18:00 18,7 C 19,1 C 17,0 C 43 % 0 lf 1004,8 hPa 0,0 l/m 0,97 h 0,00 h 300 W/m 29,8 km/h (5 Bft) 96,28 %
30.04.2017 19:00 18,2 C 18,4 C 16,3 C 42 % 0 lf 1004,4 hPa 0,0 l/m 0,97 h 0,00 h 135 W/m 28,3 km/h (4 Bft) 95,03 %
30.04.2017 20:00 17,2 C 16,9 C 14,4 C 44 % 0 lf 1004,6 hPa 0,0 l/m 0,70 h 0,00 h 42 W/m 22,0 km/h (4 Bft) 98,49 %
30.04.2017 21:00 16,1 C 15,7 C 13,2 C 47 % 0 lf 1004,7 hPa 0,0 l/m 0,00 h 0,00 h 21 W/m 16,7 km/h (3 Bft) 95,73 %
30.04.2017 22:00 15,2 C 15,0 C 12,6 C 50 % 0 lf 1004,4 hPa 0,0 l/m 0,00 h 0,00 h 0 W/m 18,4 km/h (3 Bft) 95,16 %
30.04.2017 23:00 14,8 C 14,7 C 12,4 C 51 % 0 lf 1004,0 hPa 0,0 l/m 0,00 h 0,00 h 0 W/m 21,9 km/h (4 Bft) 97,58 %
Min-Datum _ 27.04.17 27.04.17 27.04.17 30.04.17 24.04.17 30.04.17 - - - - 24.04.17 26.04.17
_ Min-Zeit 06:46 05:58 06:08 15:42 00:00 23:08 - - - - 00:10 00:02
Minimum _ 0,4 C -1,1 C -2,2 C 39 % 0 lf 1004,0 hPa - - - - 0,0 km/h (0 Bft) 9,09 %
Max-Datum _ 30.04.17 29.04.17 30.04.17 25.04.17 24.04.17 24.04.17 25.04.17 25.04.17 25.04.17 29.04.17 30.04.17 24.04.17
_ Max-Zeit 16:24 12:16 15:10 06:22 04:18 00:00 03:04 09:13 04:17 13:46 12:44 00:54
Maximum _ 19,7 C 26,1 C 27,2 C 95 % 15 lf 1022,6 hPa 1,0 l/m 0,05 h 0,08 h 1115 W/m 62,8 km/h
SO (8 Bft)
100,00 %
Durchschnitt _ 8,2 C 9,9 C 7,8 C 71 % 2 lf 1012,6 hPa #2,2 l/m #58:42 h #4:10 h 243 W/m 13,1 km/h (3 Bft) 96,38 %
© 2017 W. Hausmann